Time;durP1;ratioP1;P1;durP2;ratioP2;P2;SDS_P1;SDS_P2;PMS_P1;PMS_P2;Temp;Humidity;BMP_temperature;BMP_pressure;BME280_temperature;BME280_humidity;BME280_pressure;Samples;Min_cycle;Max_cycle;Signal;HPM_P1;HPM_P2
2022/06/17 00:01:23;;;;;;;;;;;26.60;40.70;;;;;;8469520;28;20073;-41
2022/06/17 00:05:23;;;;;;;5.40;4.90;;;26.60;40.70;;;;;;8469186;28;19912;-41
2022/06/17 00:09:25;;;;;;;;;;;26.60;40.70;;;;;;8469527;28;20082;-41
2022/06/17 00:13:27;;;;;;;5.10;4.53;;;26.60;40.70;;;;;;8468400;28;19919;-41
2022/06/17 00:17:27;;;;;;;6.00;4.53;;;26.60;40.70;;;;;;8468900;27;20494;-41
2022/06/17 00:21:30;;;;;;;;;;;26.60;40.70;;;;;;8469567;28;20028;-41
2022/06/17 00:25:34;;;;;;;5.28;4.78;;;26.60;40.80;;;;;;8468097;28;19915;-41
2022/06/17 00:29:35;;;;;;;6.32;5.18;;;26.50;40.70;;;;;;8468355;28;20032;-41
2022/06/17 00:33:35;;;;;;;;;;;26.50;40.70;;;;;;8468637;28;20519;-42
2022/06/17 00:37:36;;;;;;;6.23;5.07;;;26.50;40.70;;;;;;8467533;28;19912;-41
2022/06/17 00:41:37;;;;;;;;;;;26.50;40.70;;;;;;8468957;28;20114;-41
2022/06/17 00:45:46;;;;;;;6.35;4.60;;;26.50;40.70;;;;;;8467850;28;20007;-41
2022/06/17 00:49:53;;;;;;;5.93;4.30;;;26.50;40.70;;;;;;8466945;28;20042;-41
2022/06/17 00:54:04;;;;;;;7.03;4.28;;;26.50;40.70;;;;;;8467213;28;20082;-41
2022/06/17 00:58:17;;;;;;;4.70;4.28;;;26.50;40.80;;;;;;8467484;28;20437;-42
2022/06/17 01:02:17;;;;;;;5.47;4.70;;;26.50;40.70;;;;;;8467274;28;20155;-41
2022/06/17 01:06:20;;;;;;;;;;;26.50;40.80;;;;;;8464783;28;20065;-41
2022/06/17 01:10:22;;;;;;;5.00;4.50;;;26.40;40.70;;;;;;8465078;28;19912;-41
2022/06/17 01:14:23;;;;;;;4.55;4.15;;;26.50;40.80;;;;;;8466781;27;20053;-41
2022/06/17 01:18:23;;;;;;;;;;;26.40;40.70;;;;;;8467294;28;20031;-41
2022/06/17 01:22:27;;;;;;;5.00;4.43;;;26.40;40.70;;;;;;8466270;28;20282;-41
2022/06/17 01:26:28;;;;;;;4.63;4.07;;;26.40;40.80;;;;;;8466951;28;20118;-40
2022/06/17 01:30:45;;;;;;;;;;;26.40;40.70;;;;;;8466729;28;20054;-41
2022/06/17 01:34:46;;;;;;;5.57;4.75;;;26.40;40.70;;;;;;8465914;27;19998;-41
2022/06/17 01:38:48;;;;;;;;;;;26.30;40.70;;;;;;8466632;28;20043;-41
2022/06/17 01:42:49;;;;;;;6.05;4.90;;;26.30;40.70;;;;;;8465948;28;20014;-41
2022/06/17 01:46:54;;;;;;;;;;;26.30;40.70;;;;;;8466116;28;20036;-41
2022/06/17 01:50:56;;;;;;;5.25;4.15;;;26.30;40.70;;;;;;8464369;28;19926;-41
2022/06/17 01:54:59;;;;;;;5.78;4.20;;;26.30;40.70;;;;;;8465568;27;20035;-41
2022/06/17 01:59:09;;;;;;;4.32;3.92;;;26.30;40.80;;;;;;8464867;28;20045;-41
2022/06/17 02:03:21;;;;;;;4.90;4.40;;;26.30;40.80;;;;;;8465418;28;20036;-41
2022/06/17 02:07:33;;;;;;;5.72;4.80;;;26.30;40.70;;;;;;8465000;28;20044;-41
2022/06/17 02:11:34;;;;;;;4.82;4.15;;;26.20;40.70;;;;;;8465136;28;20541;-41
2022/06/17 02:15:35;;;;;;;;;;;26.20;40.70;;;;;;8465288;28;20043;-41
2022/06/17 02:19:39;;;;;;;4.90;4.50;;;26.20;41.20;;;;;;8464274;27;19947;-41
2022/06/17 02:23:39;;;;;;;4.53;3.95;;;26.20;40.70;;;;;;8464540;28;20046;-41
2022/06/17 02:27:41;;;;;;;;;;;26.20;40.70;;;;;;8464846;28;20126;-41
2022/06/17 02:31:43;;;;;;;4.90;4.40;;;26.20;40.70;;;;;;8464092;27;19919;-41
2022/06/17 02:35:43;;;;;;;6.72;4.30;;;26.20;40.80;;;;;;8464179;28;20115;-41
2022/06/17 02:39:46;;;;;;;;;;;26.20;40.80;;;;;;8464495;28;20028;-41
2022/06/17 02:43:57;;;;;;;5.65;4.15;;;26.20;40.80;;;;;;8463609;28;20372;-42
2022/06/17 02:47:58;;;;;;;4.97;3.90;;;26.20;40.80;;;;;;8463938;28;20041;-41
2022/06/17 02:52:00;;;;;;;;;;;26.20;40.80;;;;;;8464324;28;20047;-41
2022/06/17 02:56:16;;;;;;;5.32;4.28;;;26.10;40.70;;;;;;8463026;28;19912;-41
2022/06/17 03:00:21;;;;;;;6.05;4.28;;;26.10;40.80;;;;;;8463633;28;20111;-42
2022/06/17 03:04:25;;;;;;;4.85;4.15;;;26.10;40.70;;;;;;8462974;28;20030;-41
2022/06/17 03:08:29;;;;;;;5.22;3.90;;;26.10;40.70;;;;;;8463407;27;20023;-41
2022/06/17 03:12:30;;;;;;;4.47;3.55;;;26.10;40.80;;;;;;8463387;28;20151;-41
2022/06/17 03:16:32;;;;;;;4.43;4.03;;;26.10;40.70;;;;;;8462041;28;20032;-41
2022/06/17 03:20:34;;;;;;;4.20;3.70;;;26.00;40.70;;;;;;8463159;28;20036;-41
2022/06/17 03:24:48;;;;;;;4.50;3.70;;;26.00;40.70;;;;;;8463310;28;20039;-41
2022/06/17 03:28:51;;;;;;;4.18;3.78;;;26.00;40.60;;;;;;8462815;28;20039;-41
2022/06/17 03:33:07;;;;;;;4.63;4.13;;;26.00;40.60;;;;;;8463005;28;20068;-41
2022/06/17 03:37:18;;;;;;;4.30;3.90;;;26.00;40.70;;;;;;8429324;28;20041;-42
2022/06/17 03:41:23;;;;;;;5.00;4.03;;;26.00;40.70;;;;;;8456903;28;20036;-41
2022/06/17 03:45:45;;;;;;;3.97;3.58;;;26.00;40.70;;;;;;8462958;28;20362;-41
2022/06/17 03:50:08;;;;;;;3.88;3.55;;;26.00;40.70;;;;;;8462027;28;20034;-41
2022/06/17 03:54:16;;;;;;;4.15;3.70;;;26.00;40.60;;;;;;8462317;28;20105;-42
2022/06/17 03:58:18;;;;;;;4.53;3.88;;;26.00;40.70;;;;;;8461871;28;20496;-42
2022/06/17 04:02:20;;;;;;;3.90;3.50;;;26.00;40.70;;;;;;8462921;28;20043;-41
2022/06/17 04:06:25;;;;;;;3.95;3.55;;;25.90;40.60;;;;;;8461539;28;20125;-41
2022/06/17 04:10:29;;;;;;;5.20;4.22;;;25.90;40.60;;;;;;8461864;28;20038;-40
2022/06/17 04:15:14;;;;;;;7.22;3.88;;;25.90;40.60;;;;;;8462128;28;20048;-41
2022/06/17 04:19:21;;;;;;;4.72;3.95;;;25.90;40.60;;;;;;8461716;28;20549;-41
2022/06/17 04:23:28;;;;;;;4.10;3.70;;;25.90;40.60;;;;;;8462312;28;20438;-41
2022/06/17 04:27:56;;;;;;;4.18;3.78;;;25.90;40.60;;;;;;8467434;28;20043;-42
2022/06/17 04:32:01;;;;;;;3.73;3.33;;;25.90;40.60;;;;;;8467712;28;20044;-41
2022/06/17 04:36:20;;;;;;;4.07;3.67;;;25.90;40.60;;;;;;8468087;27;20105;-41
2022/06/17 04:40:35;;;;;;;5.18;3.50;;;25.90;40.60;;;;;;8467546;27;20076;-42
2022/06/17 04:44:38;;;;;;;4.28;3.85;;;25.90;40.60;;;;;;8468354;28;20023;-41
2022/06/17 04:48:39;;;;;;;4.00;3.50;;;25.90;40.50;;;;;;8467756;28;20063;-41
2022/06/17 04:52:43;;;;;;;4.07;3.67;;;25.90;40.50;;;;;;8467328;28;20056;-42
2022/06/17 04:56:47;;;;;;;3.67;3.28;;;25.90;40.50;;;;;;8467553;27;20043;-41
2022/06/17 05:00:54;;;;;;;3.45;3.15;;;25.90;40.50;;;;;;8467462;28;20032;-42
2022/06/17 05:04:58;;;;;;;4.10;3.38;;;25.90;41.00;;;;;;8467017;27;20039;-41
2022/06/17 05:09:12;;;;;;;3.75;3.45;;;25.90;40.50;;;;;;8467230;28;20020;-42
2022/06/17 05:13:42;;;;;;;5.22;3.78;;;25.90;40.50;;;;;;8466998;28;20538;-42
2022/06/17 05:17:44;;;;;;;3.53;3.08;;;25.90;40.50;;;;;;8467210;28;20036;-42
2022/06/17 05:21:44;;;;;;;4.32;3.92;;;25.90;40.40;;;;;;8466925;28;20042;-42
2022/06/17 05:25:48;;;;;;;4.10;3.60;;;26.00;40.30;;;;;;8466140;28;20123;-41
2022/06/17 05:29:49;;;;;;;3.65;3.35;;;26.10;40.20;;;;;;8466477;28;20555;-41
2022/06/17 05:33:49;;;;;;;3.78;3.47;;;26.20;39.90;;;;;;8466557;28;20047;-41
2022/06/17 05:37:50;;;;;;;;;;;26.30;39.80;;;;;;8465910;28;20036;-42
2022/06/17 05:41:50;;;;;;;3.13;2.83;;;26.30;39.70;;;;;;8466352;27;19912;-42
2022/06/17 05:45:51;;;;;;;;;;;26.30;39.70;;;;;;8466553;28;20388;-41
2022/06/17 05:49:51;;;;;;;3.40;3.00;;;26.30;39.80;;;;;;8465389;28;19950;-41
2022/06/17 05:53:52;;;;;;;;;;;26.20;39.80;;;;;;8466438;28;20448;-41
2022/06/17 05:57:52;;;;;;;3.77;3.30;;;26.20;39.90;;;;;;8465641;28;19926;-42
2022/06/17 06:01:53;;;;;;;;;;;26.20;39.90;;;;;;8465392;28;20039;-41
2022/06/17 06:05:53;;;;;;;3.57;3.20;;;26.10;39.90;;;;;;8464293;27;19965;-41
2022/06/17 06:09:54;;;;;;;;;;;26.10;40.00;;;;;;8465669;28;20115;-41
2022/06/17 06:13:54;;;;;;;3.87;3.50;;;26.10;40.00;;;;;;8464857;28;19927;-41
2022/06/17 06:17:55;;;;;;;;;;;26.00;40.60;;;;;;8465467;28;20051;-41
2022/06/17 06:21:55;;;;;;;3.63;3.27;;;26.00;40.00;;;;;;8464685;28;19912;-42
2022/06/17 06:25:55;;;;;;;;;;;26.00;40.00;;;;;;8464753;28;20040;-41
2022/06/17 06:29:56;;;;;;;3.80;3.27;;;26.00;40.10;;;;;;8464514;28;20002;-41
2022/06/17 06:33:56;;;;;;;;;;;26.00;40.10;;;;;;8465248;28;20044;-42
2022/06/17 06:37:57;;;;;;;4.40;3.23;;;26.00;40.10;;;;;;8463856;28;19912;-42
2022/06/17 06:41:58;;;;;;;;;;;26.00;40.10;;;;;;8464738;28;20130;-40
2022/06/17 06:45:58;;;;;;;3.23;2.87;;;26.00;40.10;;;;;;8464551;28;19907;-41
2022/06/17 06:49:59;;;;;;;;;;;26.00;40.10;;;;;;8462955;28;20040;-41
2022/06/17 06:53:59;;;;;;;3.43;3.17;;;26.00;40.10;;;;;;8464018;28;19919;-41
2022/06/17 06:58:06;;;;;;;;;;;26.00;40.10;;;;;;8464157;28;20428;-41
2022/06/17 07:02:08;;;;;;;3.38;3.08;;;26.00;40.10;;;;;;8463088;28;19938;-41
2022/06/17 07:06:10;;;;;;;3.13;2.83;;;25.90;40.00;;;;;;8454716;28;20365;-42
2022/06/17 07:10:15;;;;;;;3.30;3.00;;;25.90;40.10;;;;;;8436056;28;20032;-41
2022/06/17 07:14:16;;;;;;;3.45;2.78;;;25.90;40.60;;;;;;8463432;28;20420;-42
2022/06/17 07:18:20;;;;;;;3.50;3.20;;;26.00;40.10;;;;;;8463240;28;20032;-41
2022/06/17 07:22:22;;;;;;;3.50;3.05;;;26.00;40.10;;;;;;8463008;27;20099;-42
2022/06/17 07:26:25;;;;;;;6.18;3.78;;;25.90;40.10;;;;;;8463149;28;20134;-40
2022/06/17 07:30:25;;;;;;;3.40;3.10;;;25.90;40.10;;;;;;8463023;28;20055;-40
2022/06/17 07:34:27;;;;;;;3.33;3.03;;;25.90;40.10;;;;;;8462589;28;20058;-40
2022/06/17 07:42:53;;;;;;;3.83;3.22;;;25.90;40.20;;;;;;8462992;28;20541;-40
2022/06/17 07:46:54;;;;;;;3.25;2.95;;;26.00;40.20;;;;;;8462215;28;20118;-41
2022/06/17 07:50:58;;;;;;;;;;;26.00;40.70;;;;;;8463187;28;20028;-41
2022/06/17 07:54:59;;;;;;;3.30;3.00;;;26.00;40.20;;;;;;8462300;28;19919;-41
2022/06/17 07:58:59;;;;;;;2.97;2.78;;;26.00;40.20;;;;;;8462322;28;20060;-40
2022/06/17 08:03:00;;;;;;;;;;;26.00;40.20;;;;;;8469394;28;20036;-41
2022/06/17 08:07:01;;;;;;;3.37;3.07;;;26.00;40.10;;;;;;8469264;28;19914;-41
2022/06/17 08:11:02;;;;;;;;;;;26.00;40.20;;;;;;8468937;28;20050;-41
2022/06/17 08:15:04;;;;;;;3.67;3.38;;;26.10;40.20;;;;;;8469125;28;19912;-41
2022/06/17 08:19:07;;;;;;;3.50;3.20;;;26.00;40.20;;;;;;8468899;28;20031;-41
2022/06/17 08:23:08;;;;;;;3.30;3.00;;;26.00;40.20;;;;;;8468757;28;20577;-41
2022/06/17 08:27:09;;;;;;;;;;;26.10;40.20;;;;;;8468946;28;20039;-41
2022/06/17 08:31:09;;;;;;;3.80;3.23;;;26.10;40.20;;;;;;8468257;28;20006;-41
2022/06/17 08:35:10;;;;;;;;;;;26.10;40.20;;;;;;8468443;28;20438;-41
2022/06/17 08:39:11;;;;;;;3.30;3.00;;;26.10;40.20;;;;;;8468703;28;20439;-41
2022/06/17 08:43:28;;;;;;;3.42;3.13;;;26.10;40.20;;;;;;8467726;28;20038;-40
2022/06/17 08:47:47;;;;;;;3.33;2.88;;;26.10;40.20;;;;;;8467846;28;20039;-41
2022/06/17 08:52:23;;;;;;;2.85;2.65;;;26.10;40.30;;;;;;8467686;28;20058;-41
2022/06/17 08:56:51;;;;;;;3.50;3.20;;;26.20;40.30;;;;;;8467195;27;20044;-40
2022/06/17 09:01:22;;;;;;;3.35;3.05;;;26.20;40.30;;;;;;8467209;27;20373;-40
2022/06/17 09:05:40;;;;;;;3.35;3.05;;;26.20;40.30;;;;;;8466982;28;20387;-40
2022/06/17 09:10:04;;;;;;;3.35;3.05;;;26.20;40.30;;;;;;8467208;28;20036;-40
2022/06/17 09:14:20;;;;;;;4.03;3.17;;;26.20;40.30;;;;;;8465467;27;20055;-40
2022/06/17 09:18:28;;;;;;;3.30;3.00;;;26.30;40.40;;;;;;8467049;28;20229;-40
2022/06/17 09:22:34;;;;;;;3.35;3.05;;;26.30;40.40;;;;;;8466418;28;20031;-40
2022/06/17 09:26:54;;;;;;;3.85;3.38;;;26.30;40.40;;;;;;8466822;28;20070;-40
2022/06/17 09:31:02;;;;;;;4.00;3.60;;;26.30;40.40;;;;;;8466697;27;20491;-41
2022/06/17 09:35:25;;;;;;;3.72;3.42;;;26.40;40.40;;;;;;8466210;28;20084;-40
2022/06/17 09:39:41;;;;;;;3.67;3.17;;;26.40;40.40;;;;;;8466568;28;20039;-41
2022/06/17 09:43:53;;;;;;;3.50;3.20;;;26.40;40.40;;;;;;8465831;27;20123;-41
2022/06/17 09:48:10;;;;;;;3.63;3.08;;;26.40;40.40;;;;;;8466256;28;20498;-41
2022/06/17 09:52:17;;;;;;;3.53;3.22;;;26.40;40.30;;;;;;8465253;27;20496;-41
2022/06/17 09:56:21;;;;;;;4.00;3.60;;;26.50;40.40;;;;;;8465781;28;20480;-41
2022/06/17 10:00:26;;;;;;;3.78;3.25;;;26.50;40.40;;;;;;8465634;28;20060;-42
2022/06/17 10:04:26;;;;;;;4.68;3.40;;;26.50;40.40;;;;;;8463958;28;20043;-41
2022/06/17 10:08:27;;;;;;;;;;;26.50;40.30;;;;;;8465913;28;20036;-41
2022/06/17 10:12:40;;;;;;;4.30;3.20;;;26.50;40.40;;;;;;8465210;28;19920;-41
2022/06/17 10:21:28;;;;;;;3.60;3.30;;;26.60;40.40;;;;;;8464959;28;20093;-42
2022/06/17 10:25:52;;;;;;;3.85;3.47;;;26.60;40.30;;;;;;8464708;28;20388;-41
2022/06/17 10:30:16;;;;;;;3.65;3.35;;;26.60;40.30;;;;;;8465132;28;20396;-42
2022/06/17 10:34:19;;;;;;;3.70;3.30;;;26.60;40.30;;;;;;8464117;28;20047;-41
2022/06/17 10:38:24;;;;;;;3.30;3.00;;;26.70;40.40;;;;;;8464712;28;20063;-42
2022/06/17 10:42:26;;;;;;;3.42;3.13;;;26.70;40.30;;;;;;8464580;28;20389;-42
2022/06/17 10:46:36;;;;;;;3.55;3.25;;;26.60;40.30;;;;;;8463794;27;20053;-42
2022/06/17 10:50:36;;;;;;;3.67;3.33;;;26.70;40.30;;;;;;8464696;28;20047;-42
2022/06/17 10:54:38;;;;;;;;;;;26.70;40.30;;;;;;8464476;28;20157;-41
2022/06/17 10:58:55;;;;;;;3.88;3.50;;;26.80;40.30;;;;;;8463664;28;20421;-42
2022/06/17 11:02:55;;;;;;;3.63;3.33;;;26.70;40.30;;;;;;8463758;28;20032;-42
2022/06/17 11:07:01;;;;;;;;;;;26.80;40.30;;;;;;8464060;28;20392;-42
2022/06/17 11:15:57;;;;;;;3.35;3.05;;;26.90;40.30;;;;;;8463717;28;20086;-41
2022/06/17 11:20:19;;;;;;;4.28;3.33;;;26.90;40.20;;;;;;8451231;28;20063;-42
2022/06/17 11:24:38;;;;;;;3.58;3.28;;;26.90;40.30;;;;;;8462549;28;20036;-42
2022/06/17 11:28:45;;;;;;;4.43;3.25;;;26.90;40.20;;;;;;8462872;28;20392;-42
2022/06/17 11:32:46;;;;;;;4.00;3.45;;;26.90;40.20;;;;;;8463198;28;20151;-42
2022/06/17 11:36:52;;;;;;;;;;;27.00;40.20;;;;;;8462808;28;20036;-42
2022/06/17 11:41:00;;;;;;;3.47;3.15;;;27.00;40.10;;;;;;8462763;28;19930;-42
2022/06/17 11:45:04;;;;;;;4.00;3.40;;;27.00;40.10;;;;;;8463311;28;20043;-42
2022/06/17 11:49:16;;;;;;;4.15;3.67;;;27.00;40.00;;;;;;8462816;28;20499;-42
2022/06/17 11:53:17;;;;;;;3.50;3.20;;;27.10;40.10;;;;;;8462904;28;20078;-42
2022/06/17 11:57:25;;;;;;;3.90;3.50;;;27.10;40.10;;;;;;8462714;28;20081;-42
2022/06/17 12:01:25;;;;;;;3.92;3.03;;;27.10;40.10;;;;;;8462275;28;20050;-42
2022/06/17 12:05:28;;;;;;;;;;;27.10;40.10;;;;;;8463391;28;20043;-42
2022/06/17 12:09:37;;;;;;;3.70;3.00;;;27.20;40.00;;;;;;8462344;28;19912;-42
2022/06/17 12:13:43;;;;;;;3.70;3.10;;;27.10;40.00;;;;;;8461945;28;20059;-42
2022/06/17 12:17:45;;;;;;;3.78;3.40;;;27.20;40.10;;;;;;8462085;28;20036;-42
2022/06/17 12:22:08;;;;;;;3.10;2.80;;;27.20;40.00;;;;;;8462092;28;20047;-42
2022/06/17 12:26:16;;;;;;;3.92;3.00;;;27.20;40.00;;;;;;8460468;28;20043;-41
2022/06/17 12:30:21;;;;;;;3.40;3.10;;;27.20;40.00;;;;;;8462115;28;20495;-41
2022/06/17 12:34:33;;;;;;;3.60;3.05;;;27.30;40.10;;;;;;8461572;28;20052;-41
2022/06/17 12:39:01;;;;;;;3.58;2.80;;;27.30;40.00;;;;;;8462062;28;20039;-41
2022/06/17 12:43:20;;;;;;;3.53;3.22;;;27.30;40.00;;;;;;8461865;28;20090;-41
2022/06/17 12:47:26;;;;;;;3.95;2.88;;;27.30;40.00;;;;;;8462993;28;20120;-41
2022/06/17 12:56:19;;;;;;;3.45;3.15;;;27.40;40.00;;;;;;8433758;28;20093;-42
2022/06/17 13:00:29;;;;;;;3.47;3.15;;;27.40;40.00;;;;;;8464592;28;20042;-42
2022/06/17 13:04:49;;;;;;;3.20;2.90;;;27.40;40.00;;;;;;8466880;28;20043;-42
2022/06/17 13:09:25;;;;;;;2.73;2.53;;;27.40;40.00;;;;;;8466330;28;20141;-42
2022/06/17 13:13:44;;;;;;;3.25;2.95;;;27.50;40.10;;;;;;8446293;28;20054;-41
2022/06/17 13:17:58;;;;;;;3.33;2.90;;;27.50;40.10;;;;;;8467015;28;20051;-40
2022/06/17 13:22:06;;;;;;;3.30;2.90;;;27.50;40.00;;;;;;8466748;28;20035;-41
2022/06/17 13:26:29;;;;;;;3.60;3.28;;;27.50;40.00;;;;;;8466506;27;20043;-42
2022/06/17 13:30:39;;;;;;;4.07;3.10;;;27.50;40.00;;;;;;8466482;28;20035;-41
2022/06/17 13:34:48;;;;;;;3.38;3.05;;;27.50;40.00;;;;;;8465813;27;20075;-42
2022/06/17 13:39:04;;;;;;;4.15;3.20;;;27.50;40.00;;;;;;8466466;28;20089;-43
2022/06/17 13:43:13;;;;;;;3.15;2.85;;;27.50;39.80;;;;;;8466490;28;20032;-42
2022/06/17 13:47:36;;;;;;;4.18;2.92;;;27.60;39.90;;;;;;8465990;28;20055;-42
2022/06/17 13:51:48;;;;;;;3.95;3.30;;;27.60;39.90;;;;;;8466223;27;20070;-42
2022/06/17 13:56:12;;;;;;;5.20;3.10;;;27.60;39.90;;;;;;8465410;28;20028;-41
2022/06/17 14:00:19;;;;;;;2.92;2.63;;;27.60;40.00;;;;;;8465361;27;20095;-41
2022/06/17 14:04:22;;;;;;;3.10;2.80;;;27.60;40.00;;;;;;8465163;28;20036;-41
2022/06/17 14:08:47;;;;;;;3.47;3.17;;;27.50;39.90;;;;;;8464273;28;20404;-41
2022/06/17 14:12:48;;;;;;;3.25;2.95;;;27.60;39.90;;;;;;8465385;28;20404;-41
2022/06/17 14:17:03;;;;;;;3.85;3.10;;;27.60;39.80;;;;;;8465052;28;20031;-41
2022/06/17 14:21:17;;;;;;;3.55;2.90;;;27.60;39.80;;;;;;8465012;28;20027;-42
2022/06/17 14:25:25;;;;;;;3.70;3.08;;;27.60;39.90;;;;;;8464283;28;20427;-42
2022/06/17 14:29:30;;;;;;;3.13;2.83;;;27.60;39.90;;;;;;8465187;28;20036;-41
2022/06/17 14:33:53;;;;;;;3.28;2.97;;;27.60;40.00;;;;;;8464943;28;20039;-42
2022/06/17 14:38:30;;;;;;;2.80;2.60;;;27.60;40.00;;;;;;8464029;28;20028;-41
2022/06/17 14:42:44;;;;;;;2.95;2.72;;;27.60;40.00;;;;;;8464341;27;20047;-42
2022/06/17 14:47:23;;;;;;;2.70;2.50;;;27.60;39.90;;;;;;8464185;28;20452;-42
2022/06/17 14:51:38;;;;;;;3.72;3.08;;;27.60;39.90;;;;;;8464282;28;20059;-41
2022/06/17 14:55:55;;;;;;;3.45;3.15;;;27.60;39.90;;;;;;8464235;28;20092;-42
2022/06/17 15:00:16;;;;;;;3.75;2.97;;;27.70;39.80;;;;;;8463820;28;20055;-42
2022/06/17 15:04:19;;;;;;;;;;;27.70;39.90;;;;;;8463685;28;20081;-41
2022/06/17 15:08:27;;;;;;;3.08;2.67;;;27.70;40.00;;;;;;8463622;28;19915;-41
2022/06/17 15:12:34;;;;;;;3.17;2.88;;;27.70;40.00;;;;;;8463156;28;20043;-41
2022/06/17 15:16:40;;;;;;;3.30;2.88;;;27.70;39.90;;;;;;8463026;28;20594;-41
2022/06/17 15:20:43;;;;;;;2.97;2.67;;;27.70;40.00;;;;;;8463201;28;20092;-41
2022/06/17 15:24:47;;;;;;;3.35;2.88;;;27.70;39.90;;;;;;8463205;28;20039;-41
2022/06/17 15:28:54;;;;;;;3.80;3.10;;;27.70;40.00;;;;;;8462679;28;20118;-41
2022/06/17 15:32:57;;;;;;;2.90;2.70;;;27.70;40.00;;;;;;8463302;28;20404;-40
2022/06/17 15:36:59;;;;;;;2.97;2.63;;;27.70;40.00;;;;;;8463163;28;20032;-42
2022/06/17 15:41:22;;;;;;;2.90;2.60;;;27.80;39.80;;;;;;8462411;28;20081;-42
2022/06/17 15:45:24;;;;;;;3.38;3.08;;;27.80;39.90;;;;;;8463046;28;20718;-42
2022/06/17 15:49:28;;;;;;;2.50;2.30;;;27.80;40.00;;;;;;8462339;28;20040;-42
2022/06/17 15:53:35;;;;;;;2.80;2.45;;;27.80;39.90;;;;;;8462970;28;20039;-41
2022/06/17 15:58:00;;;;;;;2.90;2.63;;;27.80;39.90;;;;;;8463123;28;20039;-42
2022/06/17 16:02:18;;;;;;;3.30;2.60;;;27.80;39.90;;;;;;8454786;28;20035;-41
2022/06/17 16:06:38;;;;;;;3.70;2.92;;;27.80;40.10;;;;;;8462587;28;20028;-41
2022/06/17 16:11:01;;;;;;;3.17;2.70;;;27.80;39.90;;;;;;8445805;28;20074;-41
2022/06/17 16:15:14;;;;;;;3.05;2.55;;;27.80;39.90;;;;;;8445801;28;20055;-41
2022/06/17 16:19:21;;;;;;;2.72;2.53;;;27.80;39.80;;;;;;8461985;28;20031;-41
2022/06/17 16:23:30;;;;;;;2.75;2.55;;;27.80;39.70;;;;;;8467410;27;20057;-41
2022/06/17 16:27:31;;;;;;;3.03;2.72;;;27.80;39.80;;;;;;8469235;28;20396;-42
2022/06/17 16:31:31;;;;;;;2.78;2.40;;;27.80;39.70;;;;;;8467991;28;20039;-41
2022/06/17 16:35:42;;;;;;;2.78;2.58;;;27.80;39.70;;;;;;8468438;28;20032;-41
2022/06/17 16:39:43;;;;;;;3.33;2.83;;;27.80;39.90;;;;;;8468542;28;20028;-41
2022/06/17 16:43:59;;;;;;;3.15;2.85;;;27.80;39.90;;;;;;8467817;28;20072;-41
2022/06/17 16:48:01;;;;;;;2.80;2.60;;;27.80;39.90;;;;;;8468508;28;20530;-41
2022/06/17 16:52:14;;;;;;;2.75;2.22;;;27.80;40.00;;;;;;8467926;28;20495;-42
2022/06/17 16:56:25;;;;;;;3.22;2.90;;;27.80;40.00;;;;;;8467092;28;20536;-41
2022/06/17 17:00:32;;;;;;;2.55;2.35;;;27.80;40.00;;;;;;8467847;28;20027;-41
2022/06/17 17:04:32;;;;;;;3.05;2.75;;;27.80;40.00;;;;;;8467158;28;20044;-41
2022/06/17 17:08:33;;;;;;;3.17;2.70;;;27.80;40.00;;;;;;8467525;27;20486;-41
2022/06/17 17:12:33;;;;;;;2.50;2.30;;;27.80;40.00;;;;;;8467396;28;20044;-41
2022/06/17 17:16:34;;;;;;;2.63;2.42;;;27.80;40.00;;;;;;8466741;28;20580;-41
2022/06/17 17:20:39;;;;;;;2.47;2.28;;;27.80;40.00;;;;;;8467149;28;20047;-42
2022/06/17 17:24:41;;;;;;;2.42;2.22;;;27.80;40.00;;;;;;8467049;28;20059;-41
2022/06/17 17:28:42;;;;;;;3.00;2.63;;;27.80;40.00;;;;;;8466399;28;20036;-42
2022/06/17 17:32:43;;;;;;;3.42;2.40;;;27.80;40.10;;;;;;8466306;28;20050;-42
2022/06/17 17:36:44;;;;;;;2.63;2.42;;;27.80;40.10;;;;;;8466565;28;20032;-42
2022/06/17 17:40:45;;;;;;;2.97;2.60;;;27.80;40.10;;;;;;8466043;28;20439;-41
2022/06/17 17:44:45;;;;;;;2.47;2.28;;;27.80;40.10;;;;;;8466295;28;20027;-42
2022/06/17 17:48:46;;;;;;;3.08;2.70;;;27.80;40.70;;;;;;8466283;28;20035;-42
2022/06/17 17:52:47;;;;;;;3.67;2.47;;;27.80;40.10;;;;;;8465743;28;20044;-42
2022/06/17 17:56:48;;;;;;;2.65;2.17;;;27.80;40.10;;;;;;8465936;28;20448;-41
2022/06/17 18:00:49;;;;;;;2.50;2.30;;;27.70;40.10;;;;;;8465771;28;20032;-41
2022/06/17 18:04:51;;;;;;;2.90;2.60;;;27.80;40.70;;;;;;8465342;28;20036;-41
2022/06/17 18:08:51;;;;;;;2.67;2.47;;;27.80;40.10;;;;;;8465564;28;20038;-41
2022/06/17 18:12:53;;;;;;;2.75;2.55;;;27.70;40.10;;;;;;8465517;28;20130;-41
2022/06/17 18:16:55;;;;;;;2.60;2.40;;;27.70;40.00;;;;;;8464884;28;20043;-42
2022/06/17 18:20:55;;;;;;;2.55;2.35;;;27.80;40.10;;;;;;8465256;28;20076;-41
2022/06/17 18:24:56;;;;;;;3.03;2.83;;;27.80;40.20;;;;;;8465174;28;20431;-41
2022/06/17 18:28:58;;;;;;;2.90;2.60;;;27.70;40.10;;;;;;8464645;28;20080;-42
2022/06/17 18:32:59;;;;;;;3.35;2.47;;;27.70;40.10;;;;;;8460832;28;20062;-41
2022/06/17 18:36:59;;;;;;;2.97;2.70;;;27.70;40.10;;;;;;8456379;27;20039;-41
2022/06/17 18:41:00;;;;;;;3.25;2.70;;;27.70;40.60;;;;;;8464016;28;20046;-42
2022/06/17 18:45:00;;;;;;;2.88;2.67;;;27.80;40.20;;;;;;8464376;28;20114;-42
2022/06/17 18:49:06;;;;;;;3.15;2.80;;;27.70;40.10;;;;;;8464546;28;20055;-43
2022/06/17 18:53:14;;;;;;;3.08;2.78;;;27.70;40.10;;;;;;8463953;28;20044;-41
2022/06/17 18:57:16;;;;;;;3.25;2.50;;;27.70;40.00;;;;;;8464243;28;20028;-41
2022/06/17 19:01:23;;;;;;;3.20;2.67;;;27.70;39.90;;;;;;8463243;28;20039;-41
2022/06/17 19:05:37;;;;;;;2.90;2.60;;;27.70;39.70;;;;;;8463733;28;20054;-41
2022/06/17 19:18:15;;;;;;;3.33;2.75;;;27.60;39.70;;;;;;8463964;28;20039;-42
2022/06/17 19:22:18;;;;;;;3.53;2.75;;;27.60;39.80;;;;;;8463132;28;20047;-41
2022/06/17 19:26:19;;;;;;;2.80;2.60;;;27.60;39.90;;;;;;8463304;28;20036;-41
2022/06/17 19:30:20;;;;;;;2.83;2.50;;;27.60;39.90;;;;;;8463181;28;20082;-42
2022/06/17 19:34:28;;;;;;;3.75;3.20;;;27.60;40.00;;;;;;8462821;28;20044;-42
2022/06/17 19:38:38;;;;;;;3.30;2.88;;;27.70;40.10;;;;;;8463654;28;20044;-41
2022/06/17 19:42:39;;;;;;;2.42;2.22;;;27.60;40.10;;;;;;8463137;28;20085;-41
2022/06/17 19:46:43;;;;;;;;;;;27.60;40.10;;;;;;8462856;28;20384;-40
2022/06/17 19:50:44;;;;;;;2.60;2.40;;;27.60;40.20;;;;;;8462861;28;19908;-42
2022/06/17 19:54:45;;;;;;;2.78;2.58;;;27.60;40.20;;;;;;8462790;28;20051;-41
2022/06/17 19:58:45;;;;;;;3.10;2.50;;;27.50;40.20;;;;;;8468564;28;20039;-42
2022/06/17 20:02:47;;;;;;;2.70;2.50;;;27.60;40.30;;;;;;8469902;28;20042;-41
2022/06/17 20:06:48;;;;;;;3.30;3.00;;;27.50;40.20;;;;;;8469734;28;20024;-42
2022/06/17 20:10:48;;;;;;;;;;;27.50;40.20;;;;;;8469326;28;20042;-42
2022/06/17 20:14:49;;;;;;;3.07;2.77;;;27.50;40.20;;;;;;8469452;28;20394;-41
2022/06/17 20:18:49;;;;;;;5.47;2.20;;;27.50;40.30;;;;;;8469512;28;20882;-42
2022/06/17 20:22:51;;;;;;;3.10;2.80;;;27.50;40.20;;;;;;8468436;27;20139;-42
2022/06/17 20:26:52;;;;;;;2.90;2.60;;;27.50;40.30;;;;;;8468851;28;20123;-42
2022/06/17 20:30:52;;;;;;;3.03;2.78;;;27.50;40.30;;;;;;8468577;28;20059;-43
2022/06/17 20:34:53;;;;;;;;;;;27.50;40.30;;;;;;8468577;28;20118;-42
2022/06/17 20:38:53;;;;;;;2.93;2.63;;;27.50;40.30;;;;;;8468916;28;19965;-42
2022/06/17 20:42:54;;;;;;;3.53;2.80;;;27.50;40.30;;;;;;8468225;28;20032;-41
2022/06/17 20:51:22;;;;;;;2.55;2.30;;;27.50;40.30;;;;;;8468572;28;20087;-42
2022/06/17 20:55:35;;;;;;;3.10;2.80;;;27.50;40.40;;;;;;8467698;28;20365;-42
2022/06/17 20:59:36;;;;;;;3.58;3.03;;;27.50;40.40;;;;;;8468107;28;20085;-42
2022/06/17 21:03:39;;;;;;;;;;;27.50;40.40;;;;;;8468210;28;20381;-42
2022/06/17 21:07:40;;;;;;;3.38;3.08;;;27.50;40.40;;;;;;8465888;28;20304;-42
2022/06/17 21:11:40;;;;;;;;;;;27.50;40.30;;;;;;8467902;28;20126;-42
2022/06/17 21:15:42;;;;;;;3.03;2.73;;;27.40;40.30;;;;;;8467374;28;19912;-42
2022/06/17 21:19:43;;;;;;;3.33;3.03;;;27.40;40.30;;;;;;8466933;28;20032;-42
2022/06/17 21:23:46;;;;;;;3.65;2.90;;;27.40;40.30;;;;;;8467137;28;20032;-42
2022/06/17 21:27:49;;;;;;;2.90;2.70;;;27.40;40.30;;;;;;8467068;28;20039;-42
2022/06/17 21:31:50;;;;;;;3.08;2.78;;;27.40;40.30;;;;;;8466240;27;20458;-42
2022/06/17 21:35:51;;;;;;;;;;;27.40;40.30;;;;;;8466722;28;20035;-42
2022/06/17 21:39:52;;;;;;;;;;;27.40;40.30;;;;;;8467329;28;19911;-42
2022/06/17 21:43:52;;;;;;;2.80;2.50;;;27.40;40.30;;;;;;8466061;28;19946;-41
2022/06/17 21:47:55;;;;;;;3.47;2.92;;;27.40;40.40;;;;;;8466257;28;20031;-42
2022/06/17 21:51:58;;;;;;;3.15;2.85;;;27.30;40.30;;;;;;8466142;28;20070;-42
2022/06/17 21:56:03;;;;;;;3.05;2.80;;;27.40;40.30;;;;;;8466109;28;20031;-41
2022/06/17 22:00:08;;;;;;;3.15;2.85;;;27.30;40.30;;;;;;8465926;28;20038;-41
2022/06/17 22:04:14;;;;;;;2.88;2.65;;;27.30;40.30;;;;;;8464254;27;20043;-42
2022/06/17 22:08:27;;;;;;;3.13;2.80;;;27.30;40.30;;;;;;8465460;28;20031;-41
2022/06/17 22:12:28;;;;;;;2.90;2.60;;;27.30;40.30;;;;;;8465565;28;20416;-42